Time;durP1;ratioP1;P1;durP2;ratioP2;P2;SDS_P1;SDS_P2;PMS_P1;PMS_P2;Temp;Humidity;BMP_temperature;BMP_pressure;BME280_temperature;BME280_humidity;BME280_pressure;Samples;Min_cycle;Max_cycle;Signal;HPM_P1;HPM_P2
2022/10/09 00:00:10;;;;;;;;;;;;;;;;;;2131667;27;20410;-45
2022/10/09 00:01:11;;;;;;;;;;;;;;;;;;2127806;27;19923;-44
2022/10/09 00:02:12;;;;;;;;;;;;;;;;;;2122981;27;19927;-45
2022/10/09 00:03:12;;;;;;;;;;;;;;;;;;2122926;28;19931;-44
2022/10/09 00:04:13;;;;;;;;;;;;;;;;;;2123027;28;19930;-44
2022/10/09 00:05:14;;;;;;;;;;;;;;;;;;2124214;28;20272;-44
2022/10/09 00:06:15;;;;;;;;;;;;;;;;;;2124359;28;19924;-45
2022/10/09 00:07:16;;;;;;;;;;;;;;;;;;2124362;27;20010;-44
2022/10/09 00:08:17;;;;;;;;;;;;;;;;;;2124484;28;20425;-45
2022/10/09 00:09:18;;;;;;;;;;;;;;;;;;2124484;28;20030;-44
2022/10/09 00:10:19;;;;;;;;;;;;;;;;;;2124378;28;19923;-44
2022/10/09 00:11:20;;;;;;;;;;;;;;;;;;2126570;27;19934;-44
2022/10/09 00:12:20;;;;;;;;;;;;;;;;;;2132966;27;19956;-45
2022/10/09 00:13:21;;;;;;;;;;;;;;;;;;2133012;27;19923;-44
2022/10/09 00:14:22;;;;;;;;;;;;;;;;;;2132856;27;19978;-44
2022/10/09 00:15:23;;;;;;;;;;;;;;;;;;2133027;27;19930;-44
2022/10/09 00:16:24;;;;;;;;;;;;;;;;;;2132741;27;20368;-44
2022/10/09 00:17:24;;;;;;;;;;;;;;;;;;2132877;27;19930;-44
2022/10/09 00:18:25;;;;;;;;;;;;;;;;;;2132881;27;19966;-44
2022/10/09 00:19:26;;;;;;;;;;;;;;;;;;2133021;27;19930;-42
2022/10/09 00:20:27;;;;;;;;;;;;;;;;;;2133227;27;20421;-42
2022/10/09 00:21:28;;;;;;;;;;;;;;;;;;2132715;27;20006;-42
2022/10/09 00:22:29;;;;;;;;;;;;;;;;;;2132899;27;20017;-42
2022/10/09 00:23:29;;;;;;;;;;;;;;;;;;2133075;27;19923;-44
2022/10/09 00:24:30;;;;;;;;;;;;;;;;;;2132894;27;20017;-42
2022/10/09 00:25:31;;;;;;;;;;;;;;;;;;2132837;27;19924;-42
2022/10/09 00:26:32;;;;;;;;;;;;;;;;;;2132844;27;19923;-42
2022/10/09 00:27:33;;;;;;;;;;;;;;;;;;2132885;27;20291;-42
2022/10/09 00:28:33;;;;;;;;;;;;;;;;;;2132914;27;19981;-42
2022/10/09 00:29:38;;;;;;;;;;;;;;;;;;2132878;27;19923;-42
2022/10/09 00:30:39;;;;;;;;;;;;;;;;;;2132748;27;19924;-42
2022/10/09 00:31:40;;;;;;;;;;;;;;;;;;2132732;27;20315;-42
2022/10/09 00:32:41;;;;;;;;;;;;;;;;;;2132826;27;20009;-41
2022/10/09 00:33:41;;;;;;;;;;;;;;;;;;2132964;27;19923;-42
2022/10/09 00:34:42;;;;;;;;;;;;;;;;;;2132801;27;19929;-41
2022/10/09 00:35:43;;;;;;;;;;;;;;;;;;2132859;27;20295;-41
2022/10/09 00:36:44;;;;;;;;;;;;;;;;;;2132822;27;20272;-42
2022/10/09 00:37:45;;;;;;;;;;;;;;;;;;2132869;27;20325;-41
2022/10/09 00:38:46;;;;;;;;;;;;;;;;;;2132945;27;20291;-41
2022/10/09 00:39:46;;;;;;;;;;;;;;;;;;2132673;27;19927;-41
2022/10/09 00:40:47;;;;;;;;;;;;;;;;;;2132736;27;19923;-41
2022/10/09 00:41:48;;;;;;;;;;;;;;;;;;2132613;27;19923;-42
2022/10/09 00:42:49;;;;;;;;;;;;;;;;;;2132831;27;20390;-42
2022/10/09 00:43:50;;;;;;;;;;;;;;;;;;2132696;27;19938;-42
2022/10/09 00:44:51;;;;;;;;;;;;;;;;;;2132676;27;20013;-42
2022/10/09 00:45:52;;;;;;;;;;;;;;;;;;2132712;27;20752;-42
2022/10/09 00:46:53;;;;;;;;;;;;;;;;;;2132731;27;19923;-42
2022/10/09 00:47:54;;;;;;;;;;;;;;;;;;2132644;27;19971;-42
2022/10/09 00:48:54;;;;;;;;;;;;;;;;;;2132683;27;19930;-42
2022/10/09 00:49:55;;;;;;;;;;;;;;;;;;2132778;27;19970;-41
2022/10/09 00:50:56;;;;;;;;;;;;;;;;;;2132625;27;20017;-41
2022/10/09 00:51:57;;;;;;;;;;;;;;;;;;2132598;27;19930;-41
2022/10/09 00:52:58;;;;;;;;;;;;;;;;;;2132642;27;19923;-42
2022/10/09 00:53:59;;;;;;;;;;;;;;;;;;2132595;27;19923;-42
2022/10/09 00:54:59;;;;;;;;;;;;;;;;;;2132619;27;19923;-41
2022/10/09 00:56:00;;;;;;;;;;;;;;;;;;2132756;27;19927;-42
2022/10/09 00:57:01;;;;;;;;;;;;;;;;;;2132360;27;20291;-42
2022/10/09 00:58:02;;;;;;;;;;;;;;;;;;2124004;28;19924;-41
2022/10/09 00:59:03;;;;;;;;;;;;;;;;;;2123978;28;19923;-42
2022/10/09 01:00:04;;;;;;;;;;;;;;;;;;2124020;28;19953;-42
2022/10/09 01:01:04;;;;;;;;;;;;;;;;;;2124165;28;20017;-42
2022/10/09 01:02:05;;;;;;;;;;;;;;;;;;2123878;27;20411;-41
2022/10/09 01:03:06;;;;;;;;;;;;;;;;;;2123980;28;20334;-42
2022/10/09 01:04:07;;;;;;;;;;;;;;;;;;2124606;28;19976;-41
2022/10/09 01:05:08;;;;;;;;;;;;;;;;;;2124104;28;20357;-41
2022/10/09 01:06:09;;;;;;;;;;;;;;;;;;2124020;28;20375;-41
2022/10/09 01:07:09;;;;;;;;;;;;;;;;;;2123920;27;19923;-42
2022/10/09 01:08:10;;;;;;;;;;;;;;;;;;2123935;28;19927;-42
2022/10/09 01:09:11;;;;;;;;;;;;;;;;;;2124055;28;20388;-41
2022/10/09 01:10:12;;;;;;;;;;;;;;;;;;2123963;28;20261;-41
2022/10/09 01:11:13;;;;;;;;;;;;;;;;;;2125101;27;19924;-42
2022/10/09 01:12:14;;;;;;;;;;;;;;;;;;2132596;27;19923;-42
2022/10/09 01:13:14;;;;;;;;;;;;;;;;;;2132445;27;20034;-41
2022/10/09 01:14:15;;;;;;;;;;;;;;;;;;2132556;27;19930;-41
2022/10/09 01:15:16;;;;;;;;;;;;;;;;;;2132537;27;20296;-42
2022/10/09 01:16:17;;;;;;;;;;;;;;;;;;2131845;27;19945;-42
2022/10/09 01:17:23;;;;;;;;;;;;;;;;;;2132522;27;19979;-41
2022/10/09 01:18:24;;;;;;;;;;;;;;;;;;2132514;27;20376;-41
2022/10/09 01:19:25;;;;;;;;;;;;;;;;;;2132415;27;19923;-41
2022/10/09 01:20:26;;;;;;;;;;;;;;;;;;2132219;27;19970;-41
2022/10/09 01:21:26;;;;;;;;;;;;;;;;;;2132391;27;19923;-41
2022/10/09 01:22:27;;;;;;;;;;;;;;;;;;2132441;27;20029;-41
2022/10/09 01:23:28;;;;;;;;;;;;;;;;;;2132548;27;19923;-42
2022/10/09 01:24:29;;;;;;;;;;;;;;;;;;2132492;27;20253;-42
2022/10/09 01:25:31;;;;;;;;;;;;;;;;;;2132388;27;19989;-42
2022/10/09 01:26:32;;;;;;;;;;;;;;;;;;2132331;27;19923;-42
2022/10/09 01:27:32;;;;;;;;;;;;;;;;;;2132632;27;20074;-41
2022/10/09 01:28:33;;;;;;;;;;;;;;;;;;2132405;27;19923;-41
2022/10/09 01:29:34;;;;;;;;;;;;;;;;;;2132486;27;19927;-42
2022/10/09 01:30:35;;;;;;;;;;;;;;;;;;2132446;27;19967;-42
2022/10/09 01:31:36;;;;;;;;;;;;;;;;;;2132267;27;20326;-42
2022/10/09 01:32:37;;;;;;;;;;;;;;;;;;2132579;27;19927;-42
2022/10/09 01:33:37;;;;;;;;;;;;;;;;;;2132331;27;20115;-41
2022/10/09 01:34:38;;;;;;;;;;;;;;;;;;2132524;27;20013;-42
2022/10/09 01:35:39;;;;;;;;;;;;;;;;;;2132633;27;20260;-41
2022/10/09 01:36:40;;;;;;;;;;;;;;;;;;2132468;27;20426;-41
2022/10/09 01:37:40;;;;;;;;;;;;;;;;;;2132363;27;19930;-41
2022/10/09 01:38:41;;;;;;;;;;;;;;;;;;2132306;27;19927;-41
2022/10/09 01:39:42;;;;;;;;;;;;;;;;;;2132406;27;20027;-41
2022/10/09 01:40:43;;;;;;;;;;;;;;;;;;2132325;27;19946;-41
2022/10/09 01:41:44;;;;;;;;;;;;;;;;;;2132247;27;19927;-42
2022/10/09 01:42:45;;;;;;;;;;;;;;;;;;2132490;27;19930;-41
2022/10/09 01:43:46;;;;;;;;;;;;;;;;;;2132455;27;19927;-41
2022/10/09 01:44:47;;;;;;;;;;;;;;;;;;2132245;27;20017;-41
2022/10/09 01:45:48;;;;;;;;;;;;;;;;;;2132260;27;19922;-41
2022/10/09 01:46:49;;;;;;;;;;;;;;;;;;2132253;27;19977;-42
2022/10/09 01:47:49;;;;;;;;;;;;;;;;;;2132341;27;19927;-41
2022/10/09 01:48:50;;;;;;;;;;;;;;;;;;2132298;27;20020;-41
2022/10/09 01:49:51;;;;;;;;;;;;;;;;;;2132370;27;19923;-41
2022/10/09 01:50:52;;;;;;;;;;;;;;;;;;2132328;27;19923;-41
2022/10/09 01:51:53;;;;;;;;;;;;;;;;;;2132310;27;19980;-42
2022/10/09 01:52:54;;;;;;;;;;;;;;;;;;2132269;27;20066;-41
2022/10/09 01:53:54;;;;;;;;;;;;;;;;;;2126624;27;19923;-41
2022/10/09 01:54:55;;;;;;;;;;;;;;;;;;2123666;28;20470;-41
2022/10/09 01:55:56;;;;;;;;;;;;;;;;;;2123628;28;19928;-41
2022/10/09 01:56:57;;;;;;;;;;;;;;;;;;2123731;27;20022;-41
2022/10/09 01:57:58;;;;;;;;;;;;;;;;;;2123650;28;20444;-41
2022/10/09 01:58:58;;;;;;;;;;;;;;;;;;2123745;28;20022;-41
2022/10/09 01:59:59;;;;;;;;;;;;;;;;;;2123647;28;19923;-41
2022/10/09 02:01:00;;;;;;;;;;;;;;;;;;2123769;28;19935;-41
2022/10/09 02:02:01;;;;;;;;;;;;;;;;;;2123813;27;20329;-45
2022/10/09 02:03:02;;;;;;;;;;;;;;;;;;2123719;28;20364;-44
2022/10/09 02:04:03;;;;;;;;;;;;;;;;;;2123609;28;19962;-44
2022/10/09 02:05:03;;;;;;;;;;;;;;;;;;2123580;28;19988;-44
2022/10/09 02:06:04;;;;;;;;;;;;;;;;;;2123665;28;19975;-44
2022/10/09 02:07:05;;;;;;;;;;;;;;;;;;2123552;27;19923;-44
2022/10/09 02:08:06;;;;;;;;;;;;;;;;;;2123675;28;19923;-44
2022/10/09 02:09:07;;;;;;;;;;;;;;;;;;2123547;28;20285;-44
2022/10/09 02:10:08;;;;;;;;;;;;;;;;;;2123580;28;20006;-44
2022/10/09 02:11:10;;;;;;;;;;;;;;;;;;2124158;27;19945;-44
2022/10/09 02:12:11;;;;;;;;;;;;;;;;;;2132179;27;19930;-44
2022/10/09 02:13:11;;;;;;;;;;;;;;;;;;2132223;27;19923;-44
2022/10/09 02:14:12;;;;;;;;;;;;;;;;;;2132102;27;19923;-44
2022/10/09 02:15:13;;;;;;;;;;;;;;;;;;2132065;27;19970;-44
2022/10/09 02:16:14;;;;;;;;;;;;;;;;;;2132122;27;20052;-44
2022/10/09 02:17:15;;;;;;;;;;;;;;;;;;2131714;27;20368;-44
2022/10/09 02:18:16;;;;;;;;;;;;;;;;;;2132081;27;19937;-44
2022/10/09 02:19:16;;;;;;;;;;;;;;;;;;2132205;27;20373;-44
2022/10/09 02:20:17;;;;;;;;;;;;;;;;;;2132048;27;20022;-44
2022/10/09 02:21:18;;;;;;;;;;;;;;;;;;2132226;27;19967;-44
2022/10/09 02:22:19;;;;;;;;;;;;;;;;;;2131955;27;19974;-44
2022/10/09 02:23:20;;;;;;;;;;;;;;;;;;2132090;27;19934;-44
2022/10/09 02:24:21;;;;;;;;;;;;;;;;;;2132005;27;19927;-44
2022/10/09 02:25:21;;;;;;;;;;;;;;;;;;2131972;27;19924;-44
2022/10/09 02:26:22;;;;;;;;;;;;;;;;;;2131922;27;19923;-44
2022/10/09 02:27:23;;;;;;;;;;;;;;;;;;2132007;27;19923;-44
2022/10/09 02:28:24;;;;;;;;;;;;;;;;;;2130969;27;19975;-44
2022/10/09 02:29:24;;;;;;;;;;;;;;;;;;2132035;27;19931;-44
2022/10/09 02:30:25;;;;;;;;;;;;;;;;;;2132117;27;20424;-44
2022/10/09 02:31:26;;;;;;;;;;;;;;;;;;2131932;27;20034;-44
2022/10/09 02:32:27;;;;;;;;;;;;;;;;;;2132004;27;19974;-44
2022/10/09 02:33:28;;;;;;;;;;;;;;;;;;2132105;27;19927;-44
2022/10/09 02:34:29;;;;;;;;;;;;;;;;;;2132083;27;20370;-44
2022/10/09 02:35:29;;;;;;;;;;;;;;;;;;2132041;27;19951;-45
2022/10/09 02:36:30;;;;;;;;;;;;;;;;;;2131866;27;19970;-44
2022/10/09 02:37:31;;;;;;;;;;;;;;;;;;2131964;27;19927;-44
2022/10/09 02:38:32;;;;;;;;;;;;;;;;;;2132001;27;19923;-44
2022/10/09 02:39:33;;;;;;;;;;;;;;;;;;2132090;27;20283;-44
2022/10/09 02:40:33;;;;;;;;;;;;;;;;;;2132073;27;19927;-44
2022/10/09 02:41:34;;;;;;;;;;;;;;;;;;2132096;27;19929;-44
2022/10/09 02:42:35;;;;;;;;;;;;;;;;;;2131915;27;19923;-44
2022/10/09 02:43:36;;;;;;;;;;;;;;;;;;2132048;27;20233;-44
2022/10/09 02:44:37;;;;;;;;;;;;;;;;;;2131978;27;19987;-44
2022/10/09 02:45:37;;;;;;;;;;;;;;;;;;2131909;27;19923;-44
2022/10/09 02:46:38;;;;;;;;;;;;;;;;;;2132181;27;19976;-44
2022/10/09 02:47:39;;;;;;;;;;;;;;;;;;2131893;27;19923;-45
2022/10/09 02:48:40;;;;;;;;;;;;;;;;;;2131910;27;19923;-44
2022/10/09 02:49:41;;;;;;;;;;;;;;;;;;2130421;27;19924;-44
2022/10/09 02:50:41;;;;;;;;;;;;;;;;;;2123487;28;19923;-44
2022/10/09 02:51:42;;;;;;;;;;;;;;;;;;2123310;27;19962;-45
2022/10/09 02:52:43;;;;;;;;;;;;;;;;;;2123428;28;20015;-44
2022/10/09 02:53:44;;;;;;;;;;;;;;;;;;2123259;28;19934;-44
2022/10/09 02:54:45;;;;;;;;;;;;;;;;;;2123245;28;20108;-44
2022/10/09 02:55:45;;;;;;;;;;;;;;;;;;2123428;28;20444;-45
2022/10/09 02:56:46;;;;;;;;;;;;;;;;;;2123134;27;20020;-44
2022/10/09 02:57:47;;;;;;;;;;;;;;;;;;2123313;28;19980;-44
2022/10/09 02:58:48;;;;;;;;;;;;;;;;;;2123399;28;19924;-44
2022/10/09 02:59:49;;;;;;;;;;;;;;;;;;2123543;28;19924;-41
2022/10/09 03:00:50;;;;;;;;;;;;;;;;;;2123208;28;19963;-41
2022/10/09 03:01:50;;;;;;;;;;;;;;;;;;2123196;27;19927;-41
2022/10/09 03:02:51;;;;;;;;;;;;;;;;;;2123335;28;20010;-41
2022/10/09 03:03:53;;;;;;;;;;;;;;;;;;2123150;28;20271;-41
2022/10/09 03:04:54;;;;;;;;;;;;;;;;;;2123258;28;19931;-41
2022/10/09 03:05:54;;;;;;;;;;;;;;;;;;2123212;28;20014;-41
2022/10/09 03:06:55;;;;;;;;;;;;;;;;;;2123335;27;20314;-41
2022/10/09 03:07:57;;;;;;;;;;;;;;;;;;2123208;28;19927;-41
2022/10/09 03:08:58;;;;;;;;;;;;;;;;;;2123118;28;19923;-41
2022/10/09 03:09:59;;;;;;;;;;;;;;;;;;2123214;28;20462;-41
2022/10/09 03:10:59;;;;;;;;;;;;;;;;;;2123299;28;19950;-41
2022/10/09 03:12:00;;;;;;;;;;;;;;;;;;2131113;27;19993;-41
2022/10/09 03:13:01;;;;;;;;;;;;;;;;;;2131690;27;19927;-41
2022/10/09 03:14:02;;;;;;;;;;;;;;;;;;2131760;27;19923;-41
2022/10/09 03:15:03;;;;;;;;;;;;;;;;;;2131661;27;19944;-41
2022/10/09 03:16:03;;;;;;;;;;;;;;;;;;2131858;27;19952;-41
2022/10/09 03:17:04;;;;;;;;;;;;;;;;;;2131579;27;19924;-42
2022/10/09 03:18:05;;;;;;;;;;;;;;;;;;2131852;27;20010;-41
2022/10/09 03:19:06;;;;;;;;;;;;;;;;;;2131731;27;20362;-41
2022/10/09 03:20:07;;;;;;;;;;;;;;;;;;2131858;27;19923;-41
2022/10/09 03:21:07;;;;;;;;;;;;;;;;;;2131770;27;20280;-41
2022/10/09 03:22:08;;;;;;;;;;;;;;;;;;2131653;27;20299;-41
2022/10/09 03:23:09;;;;;;;;;;;;;;;;;;2131662;27;19931;-41
2022/10/09 03:24:10;;;;;;;;;;;;;;;;;;2131661;27;20018;-41
2022/10/09 03:25:11;;;;;;;;;;;;;;;;;;2131860;27;19972;-41
2022/10/09 03:26:12;;;;;;;;;;;;;;;;;;2131651;27;19923;-41
2022/10/09 03:27:12;;;;;;;;;;;;;;;;;;2131621;27;19930;-41
2022/10/09 03:28:13;;;;;;;;;;;;;;;;;;2131534;27;19927;-41
2022/10/09 03:29:14;;;;;;;;;;;;;;;;;;2131792;27;19923;-41
2022/10/09 03:30:15;;;;;;;;;;;;;;;;;;2131730;27;20364;-41
2022/10/09 03:31:16;;;;;;;;;;;;;;;;;;2131787;27;19923;-41
2022/10/09 03:32:36;;;;;;;;;;;;;;;;;;2131517;27;19923;-41
2022/10/09 03:33:37;;;;;;;;;;;;;;;;;;2131647;27;19930;-41
2022/10/09 03:34:38;;;;;;;;;;;;;;;;;;2131636;27;19930;-41
2022/10/09 03:35:39;;;;;;;;;;;;;;;;;;2131627;27;19930;-41
2022/10/09 03:36:41;;;;;;;;;;;;;;;;;;2131529;27;19923;-41
2022/10/09 03:37:41;;;;;;;;;;;;;;;;;;2131632;27;19924;-41
2022/10/09 03:38:42;;;;;;;;;;;;;;;;;;2131616;27;19938;-41
2022/10/09 03:39:43;;;;;;;;;;;;;;;;;;2132252;27;20022;-41
2022/10/09 03:40:44;;;;;;;;;;;;;;;;;;2133248;27;20446;-41
2022/10/09 03:41:45;;;;;;;;;;;;;;;;;;2133053;27;20345;-41
2022/10/09 03:42:45;;;;;;;;;;;;;;;;;;2133116;27;20344;-41
2022/10/09 03:43:46;;;;;;;;;;;;;;;;;;2133163;27;19934;-41
2022/10/09 03:44:47;;;;;;;;;;;;;;;;;;2133096;27;20272;-41
2022/10/09 03:45:48;;;;;;;;;;;;;;;;;;2132925;27;19923;-44
2022/10/09 03:46:49;;;;;;;;;;;;;;;;;;2124421;27;19923;-44
2022/10/09 03:47:50;;;;;;;;;;;;;;;;;;2124633;28;19924;-44
2022/10/09 03:48:51;;;;;;;;;;;;;;;;;;2124390;28;20296;-44
2022/10/09 03:49:51;;;;;;;;;;;;;;;;;;2124524;28;19981;-44
2022/10/09 03:50:52;;;;;;;;;;;;;;;;;;2124660;28;19946;-41
2022/10/09 03:51:53;;;;;;;;;;;;;;;;;;2124402;27;19923;-41
2022/10/09 03:52:54;;;;;;;;;;;;;;;;;;2124429;28;19968;-41
2022/10/09 03:53:55;;;;;;;;;;;;;;;;;;2124423;28;19924;-41
2022/10/09 03:54:56;;;;;;;;;;;;;;;;;;2124660;28;19924;-41
2022/10/09 03:55:56;;;;;;;;;;;;;;;;;;2124638;28;19923;-41
2022/10/09 03:56:57;;;;;;;;;;;;;;;;;;2124551;27;20355;-41
2022/10/09 03:57:58;;;;;;;;;;;;;;;;;;2124593;28;19923;-41
2022/10/09 03:58:59;;;;;;;;;;;;;;;;;;2124555;28;19931;-41
2022/10/09 03:59:59;;;;;;;;;;;;;;;;;;2124392;28;19928;-41
2022/10/09 04:01:00;;;;;;;;;;;;;;;;;;2124532;28;19927;-41
2022/10/09 04:02:01;;;;;;;;;;;;;;;;;;2124363;27;20384;-42
2022/10/09 04:03:02;;;;;;;;;;;;;;;;;;2124524;28;19967;-41
2022/10/09 04:04:04;;;;;;;;;;;;;;;;;;2124416;28;19928;-41
2022/10/09 04:05:05;;;;;;;;;;;;;;;;;;2124584;28;20391;-41
2022/10/09 04:06:05;;;;;;;;;;;;;;;;;;2124454;28;19930;-41
2022/10/09 04:07:06;;;;;;;;;;;;;;;;;;2124425;27;19958;-41
2022/10/09 04:08:08;;;;;;;;;;;;;;;;;;2124472;28;20276;-41
2022/10/09 04:09:09;;;;;;;;;;;;;;;;;;2124834;27;19947;-41
2022/10/09 04:10:09;;;;;;;;;;;;;;;;;;2133059;27;19929;-41
2022/10/09 04:11:10;;;;;;;;;;;;;;;;;;2131710;27;19927;-41
2022/10/09 04:12:11;;;;;;;;;;;;;;;;;;2124260;27;19927;-41
2022/10/09 04:13:12;;;;;;;;;;;;;;;;;;2124336;28;19927;-41
2022/10/09 04:14:13;;;;;;;;;;;;;;;;;;2124379;28;19923;-41
2022/10/09 04:15:14;;;;;;;;;;;;;;;;;;2124421;28;20026;-41
2022/10/09 04:16:14;;;;;;;;;;;;;;;;;;2124497;28;20334;-41
2022/10/09 04:17:15;;;;;;;;;;;;;;;;;;2124169;27;19994;-41
2022/10/09 04:18:16;;;;;;;;;;;;;;;;;;2124515;28;19923;-41
2022/10/09 04:19:17;;;;;;;;;;;;;;;;;;2124438;28;19959;-41
2022/10/09 04:20:19;;;;;;;;;;;;;;;;;;2124309;28;20390;-41
2022/10/09 04:21:20;;;;;;;;;;;;;;;;;;2124250;28;19935;-41
2022/10/09 04:22:21;;;;;;;;;;;;;;;;;;2124340;28;19928;-41
2022/10/09 04:23:22;;;;;;;;;;;;;;;;;;2124618;28;20372;-41
2022/10/09 04:24:22;;;;;;;;;;;;;;;;;;2124195;28;19928;-41
2022/10/09 04:25:23;;;;;;;;;;;;;;;;;;2124262;28;20056;-41
2022/10/09 04:26:24;;;;;;;;;;;;;;;;;;2124223;27;19963;-41
2022/10/09 04:27:25;;;;;;;;;;;;;;;;;;2124259;28;19997;-41
2022/10/09 04:28:26;;;;;;;;;;;;;;;;;;2124099;28;19985;-41
2022/10/09 04:29:27;;;;;;;;;;;;;;;;;;2124367;28;19931;-41
2022/10/09 04:30:27;;;;;;;;;;;;;;;;;;2124233;28;20034;-41
2022/10/09 04:31:28;;;;;;;;;;;;;;;;;;2124116;27;19974;-41
2022/10/09 04:32:29;;;;;;;;;;;;;;;;;;2124218;28;20372;-41
2022/10/09 04:33:30;;;;;;;;;;;;;;;;;;2124185;28;19970;-41
2022/10/09 04:34:31;;;;;;;;;;;;;;;;;;2124433;28;20392;-41
2022/10/09 04:35:32;;;;;;;;;;;;;;;;;;2124369;28;20188;-44
2022/10/09 04:36:32;;;;;;;;;;;;;;;;;;2124222;27;19923;-44
2022/10/09 04:37:35;;;;;;;;;;;;;;;;;;2124140;28;19947;-45
2022/10/09 04:38:36;;;;;;;;;;;;;;;;;;2124528;28;19923;-43
2022/10/09 04:39:37;;;;;;;;;;;;;;;;;;2124263;28;19997;-44
2022/10/09 04:40:37;;;;;;;;;;;;;;;;;;2124227;28;19928;-45
2022/10/09 04:41:38;;;;;;;;;;;;;;;;;;2124241;27;19928;-44
2022/10/09 04:42:39;;;;;;;;;;;;;;;;;;2129477;27;19923;-44
2022/10/09 04:43:40;;;;;;;;;;;;;;;;;;2132685;27;20025;-44
2022/10/09 04:44:40;;;;;;;;;;;;;;;;;;2132605;27;19927;-44
2022/10/09 04:45:41;;;;;;;;;;;;;;;;;;2132808;27;19934;-44
2022/10/09 04:46:42;;;;;;;;;;;;;;;;;;2132575;27;19952;-44
2022/10/09 04:47:43;;;;;;;;;;;;;;;;;;2132756;27;19926;-44
2022/10/09 04:48:44;;;;;;;;;;;;;;;;;;2132655;27;19972;-45
2022/10/09 04:49:45;;;;;;;;;;;;;;;;;;2132869;27;20291;-45
2022/10/09 04:50:45;;;;;;;;;;;;;;;;;;2132524;27;19923;-45
2022/10/09 04:51:46;;;;;;;;;;;;;;;;;;2131671;27;19970;-45
2022/10/09 04:52:47;;;;;;;;;;;;;;;;;;2132640;27;19923;-44
2022/10/09 04:53:48;;;;;;;;;;;;;;;;;;2132619;27;19966;-44
2022/10/09 04:54:49;;;;;;;;;;;;;;;;;;2132820;27;19930;-44
2022/10/09 04:55:50;;;;;;;;;;;;;;;;;;2132563;27;19956;-44
2022/10/09 04:56:51;;;;;;;;;;;;;;;;;;2132805;27;19992;-44
2022/10/09 04:57:52;;;;;;;;;;;;;;;;;;2132622;27;20295;-44
2022/10/09 04:58:52;;;;;;;;;;;;;;;;;;2132585;27;19923;-44
2022/10/09 04:59:53;;;;;;;;;;;;;;;;;;2132516;27;19923;-45
2022/10/09 05:00:54;;;;;;;;;;;;;;;;;;2132702;27;20018;-46
2022/10/09 05:01:55;;;;;;;;;;;;;;;;;;2132634;27;20413;-45
2022/10/09 05:02:56;;;;;;;;;;;;;;;;;;2132512;27;19930;-45
2022/10/09 05:03:57;;;;;;;;;;;;;;;;;;2132667;27;19929;-45
2022/10/09 05:04:57;;;;;;;;;;;;;;;;;;2132574;27;20312;-45
2022/10/09 05:05:58;;;;;;;;;;;;;;;;;;2132367;27;20319;-45
2022/10/09 05:06:59;;;;;;;;;;;;;;;;;;2132660;27;19930;-43
2022/10/09 05:08:00;;;;;;;;;;;;;;;;;;2132680;27;19927;-43
2022/10/09 05:09:01;;;;;;;;;;;;;;;;;;2132472;27;20410;-43
2022/10/09 05:10:02;;;;;;;;;;;;;;;;;;2132676;27;19927;-43
2022/10/09 05:11:02;;;;;;;;;;;;;;;;;;2132459;27;19923;-43
2022/10/09 05:12:03;;;;;;;;;;;;;;;;;;2123993;27;19963;-45
2022/10/09 05:13:04;;;;;;;;;;;;;;;;;;2123931;28;19923;-45
2022/10/09 05:14:05;;;;;;;;;;;;;;;;;;2123927;28;19962;-45
2022/10/09 05:15:06;;;;;;;;;;;;;;;;;;2124083;28;19939;-43
2022/10/09 05:16:07;;;;;;;;;;;;;;;;;;2124160;28;19923;-44
2022/10/09 05:17:07;;;;;;;;;;;;;;;;;;2123929;27;19962;-45
2022/10/09 05:18:14;;;;;;;;;;;;;;;;;;2124073;28;19930;-44
2022/10/09 05:19:15;;;;;;;;;;;;;;;;;;2123919;28;19923;-45
2022/10/09 05:20:16;;;;;;;;;;;;;;;;;;2123923;28;20014;-45
2022/10/09 05:21:17;;;;;;;;;;;;;;;;;;2124281;28;20463;-43
2022/10/09 05:22:18;;;;;;;;;;;;;;;;;;2123791;27;19981;-43
2022/10/09 05:23:18;;;;;;;;;;;;;;;;;;2123811;28;19976;-43
2022/10/09 05:24:19;;;;;;;;;;;;;;;;;;2123825;28;19969;-43
2022/10/09 05:25:20;;;;;;;;;;;;;;;;;;2123868;28;19923;-43
2022/10/09 05:26:21;;;;;;;;;;;;;;;;;;2123790;27;19982;-43
2022/10/09 05:27:22;;;;;;;;;;;;;;;;;;2123974;28;19947;-45
2022/10/09 05:28:23;;;;;;;;;;;;;;;;;;2123764;28;20022;-45
2022/10/09 05:29:23;;;;;;;;;;;;;;;;;;2123867;28;19924;-45
2022/10/09 05:30:24;;;;;;;;;;;;;;;;;;2123938;28;20431;-45
2022/10/09 05:31:25;;;;;;;;;;;;;;;;;;2123797;27;19923;-45
2022/10/09 05:32:26;;;;;;;;;;;;;;;;;;2123785;28;20386;-45
2022/10/09 05:33:27;;;;;;;;;;;;;;;;;;2124096;28;20379;-43
2022/10/09 05:34:28;;;;;;;;;;;;;;;;;;2123750;28;19963;-44
2022/10/09 05:35:28;;;;;;;;;;;;;;;;;;2123809;28;19953;-43
2022/10/09 05:36:29;;;;;;;;;;;;;;;;;;2123694;27;19924;-43
2022/10/09 05:37:30;;;;;;;;;;;;;;;;;;2123900;28;19924;-43
2022/10/09 05:38:31;;;;;;;;;;;;;;;;;;2125776;27;19973;-43
2022/10/09 05:39:34;;;;;;;;;;;;;;;;;;2132722;27;19982;-43
2022/10/09 05:40:35;;;;;;;;;;;;;;;;;;2132374;27;19987;-43
2022/10/09 05:41:36;;;;;;;;;;;;;;;;;;2132495;27;20359;-45
2022/10/09 05:42:37;;;;;;;;;;;;;;;;;;2132617;27;19929;-45
2022/10/09 05:43:37;;;;;;;;;;;;;;;;;;2132256;27;20366;-46
2022/10/09 05:44:38;;;;;;;;;;;;;;;;;;2132445;27;20013;-45
2022/10/09 05:45:39;;;;;;;;;;;;;;;;;;2132188;27;19930;-45
2022/10/09 05:46:40;;;;;;;;;;;;;;;;;;2132243;27;20459;-45
2022/10/09 05:47:41;;;;;;;;;;;;;;;;;;2132459;27;20030;-43
2022/10/09 05:48:41;;;;;;;;;;;;;;;;;;2132129;27;19934;-43
2022/10/09 05:49:42;;;;;;;;;;;;;;;;;;2132519;27;19929;-45
2022/10/09 05:50:43;;;;;;;;;;;;;;;;;;2132248;27;20026;-45
2022/10/09 05:51:44;;;;;;;;;;;;;;;;;;2132223;27;19931;-45
2022/10/09 05:52:45;;;;;;;;;;;;;;;;;;2132353;27;19927;-45
2022/10/09 05:53:46;;;;;;;;;;;;;;;;;;2132281;27;20007;-45
2022/10/09 05:54:46;;;;;;;;;;;;;;;;;;2132176;27;19934;-44
2022/10/09 05:55:47;;;;;;;;;;;;;;;;;;2132364;27;19971;-45
2022/10/09 05:56:48;;;;;;;;;;;;;;;;;;2132141;27;19946;-45
2022/10/09 05:57:49;;;;;;;;;;;;;;;;;;2132554;27;20376;-45
2022/10/09 05:58:50;;;;;;;;;;;;;;;;;;2132247;27;19923;-45
2022/10/09 05:59:51;;;;;;;;;;;;;;;;;;2132241;27;19933;-45
2022/10/09 06:00:51;;;;;;;;;;;;;;;;;;2132254;27;19927;-45
2022/10/09 06:01:53;;;;;;;;;;;;;;;;;;2132038;27;20389;-43
2022/10/09 06:02:54;;;;;;;;;;;;;;;;;;2131944;27;19923;-43
2022/10/09 06:03:55;;;;;;;;;;;;;;;;;;2132274;27;20363;-44
2022/10/09 06:04:56;;;;;;;;;;;;;;;;;;2132097;27;19927;-44
2022/10/09 06:05:57;;;;;;;;;;;;;;;;;;2132160;27;20391;-43
2022/10/09 06:06:58;;;;;;;;;;;;;;;;;;2132419;27;20287;-45
2022/10/09 06:07:58;;;;;;;;;;;;;;;;;;2132166;27;19968;-45
2022/10/09 06:08:59;;;;;;;;;;;;;;;;;;2132364;27;19923;-43
2022/10/09 06:10:00;;;;;;;;;;;;;;;;;;2132370;27;19923;-45
2022/10/09 06:11:01;;;;;;;;;;;;;;;;;;2132256;27;19947;-45
2022/10/09 06:12:02;;;;;;;;;;;;;;;;;;2131918;27;19931;-45
2022/10/09 06:13:03;;;;;;;;;;;;;;;;;;2132028;27;19923;-45
2022/10/09 06:14:03;;;;;;;;;;;;;;;;;;2132068;27;19930;-45
2022/10/09 06:15:04;;;;;;;;;;;;;;;;;;2131946;27;19962;-44
2022/10/09 06:16:05;;;;;;;;;;;;;;;;;;2132502;27;19930;-46
2022/10/09 06:17:06;;;;;;;;;;;;;;;;;;2132008;27;19966;-45
2022/10/09 06:18:07;;;;;;;;;;;;;;;;;;2132057;27;20014;-45
2022/10/09 06:19:08;;;;;;;;;;;;;;;;;;2132033;27;19930;-44
2022/10/09 06:20:08;;;;;;;;;;;;;;;;;;2132327;27;19923;-45
2022/10/09 06:21:09;;;;;;;;;;;;;;;;;;2132242;27;19923;-45
2022/10/09 06:22:10;;;;;;;;;;;;;;;;;;2132085;27;19924;-46
2022/10/09 06:23:11;;;;;;;;;;;;;;;;;;2132011;27;20357;-45
2022/10/09 06:24:12;;;;;;;;;;;;;;;;;;2132119;27;19927;-45
2022/10/09 06:25:13;;;;;;;;;;;;;;;;;;2132044;27;19923;-45
2022/10/09 06:26:14;;;;;;;;;;;;;;;;;;2132011;27;20276;-45
2022/10/09 06:27:15;;;;;;;;;;;;;;;;;;2131967;27;19931;-46
2022/10/09 06:28:15;;;;;;;;;;;;;;;;;;2132165;27;19923;-44
2022/10/09 06:29:16;;;;;;;;;;;;;;;;;;2132021;27;19966;-44
2022/10/09 06:30:17;;;;;;;;;;;;;;;;;;2132040;27;19972;-44
2022/10/09 06:31:18;;;;;;;;;;;;;;;;;;2132321;27;19923;-44
2022/10/09 06:32:19;;;;;;;;;;;;;;;;;;2131957;27;19923;-45
2022/10/09 06:33:20;;;;;;;;;;;;;;;;;;2132048;27;20383;-45
2022/10/09 06:34:20;;;;;;;;;;;;;;;;;;2132011;27;20010;-45
2022/10/09 06:35:21;;;;;;;;;;;;;;;;;;2131848;27;19974;-45
2022/10/09 06:36:22;;;;;;;;;;;;;;;;;;2131984;27;19926;-45
2022/10/09 06:37:23;;;;;;;;;;;;;;;;;;2131902;27;20300;-45
2022/10/09 06:38:23;;;;;;;;;;;;;;;;;;2132148;27;20398;-45
2022/10/09 06:39:25;;;;;;;;;;;;;;;;;;2131888;27;20085;-45
2022/10/09 06:40:26;;;;;;;;;;;;;;;;;;2131949;27;19923;-45
2022/10/09 06:41:27;;;;;;;;;;;;;;;;;;2131777;27;19967;-45
2022/10/09 06:42:27;;;;;;;;;;;;;;;;;;2132021;27;20017;-45
2022/10/09 06:43:28;;;;;;;;;;;;;;;;;;2132237;27;20340;-44
2022/10/09 06:44:29;;;;;;;;;;;;;;;;;;2131910;27;19926;-45
2022/10/09 06:45:30;;;;;;;;;;;;;;;;;;2132525;27;19923;-45
2022/10/09 06:46:31;;;;;;;;;;;;;;;;;;2131742;27;19974;-45
2022/10/09 06:47:31;;;;;;;;;;;;;;;;;;2131852;27;20299;-44
2022/10/09 06:48:32;;;;;;;;;;;;;;;;;;2131862;27;19930;-44
2022/10/09 06:49:33;;;;;;;;;;;;;;;;;;2132006;27;19923;-44
2022/10/09 06:50:34;;;;;;;;;;;;;;;;;;2131920;27;20339;-44
2022/10/09 06:51:35;;;;;;;;;;;;;;;;;;2131880;27;19927;-44
2022/10/09 06:52:36;;;;;;;;;;;;;;;;;;2131910;27;19923;-44
2022/10/09 06:53:37;;;;;;;;;;;;;;;;;;2132205;27;19930;-44
2022/10/09 06:54:38;;;;;;;;;;;;;;;;;;2131769;27;19976;-44
2022/10/09 06:55:38;;;;;;;;;;;;;;;;;;2131801;27;19924;-44